Eriksdale, Canada
Current Conditions -  °F | °C
As of 4:00 PM on Friday 31 Oct 2014 (Local Time) from CYPG Reporting Station
Broken Clouds Broken Clouds  
Wind Chill: 30°   Ceiling: 22000
Heat Index: 39°   Visibility: 15mi
Dew Point: 14°   Wind: 17mph
Humidity: 36%   Direction: 160°SSE
Pressure: 30.36"   Gusts: 24mph
Location:  50.87°N, 98.1°W
Report Text: CYPG 312100Z 16015G21KT 15SM BKN220 04/M10 A3036 RMK CI2SLP299
Loading
Personal Weather Stations






























Interactive Weather Map
Tropical Storm Tracking
New forecast layout! Learn more

10-Day Weather Forecast

Advertisements
Track Severe Weather on mobile